Wiconisco, Pennsylvania
Current Conditions -  °F | °C
As of 7:58 AM on Thursday 18 Dec 2014 (Local Time) from KMUI Reporting Station
Overcast Overcast  
Wind Chill: 29°   Ceiling: 3200
Heat Index: 33°   Visibility: 10mi
Dew Point: 20°   Wind: 5mph
Humidity: 59%   Direction: NA
Pressure: 30.08"   Gusts: 18mph
Location:  40.57°N, 76.69°W
Report Text: KMUI 181258Z AUTO VRB04G16KT 10SM OVC032 01/M06 A3008 RMK AO2 SLP193 T00081065
Loading
Personal Weather Stations






























Interactive Weather Map New forecast layout! Learn more

10-Day Weather Forecast

Advertisements
Track Severe Weather on mobile